Refuge, Texas
Current Conditions -  °F | °C
As of 12:15 AM on Sunday 23 Nov 2014 (Local Time) from KDKR Reporting Station
Drizzle Drizzle  
Wind Chill: 18°   Ceiling: 1000
Heat Index: 18°   Visibility: 10mi
Dew Point: 18°   Wind: 7mph
Humidity: 100%   Direction: 20°NNE
Pressure: 29.76"   Gusts: NA
Location:  31.4982°N, 95.4177°W
Report Text: KDKR 230615Z AUTO 02006KT 10SM -DZ SCT004 BKN010 OVC017 18/18 A2976 RMK AO2 P0007
Loading
Personal Weather Stations






























Interactive Weather Map New forecast layout! Learn more

10-Day Weather Forecast

Advertisements
Track Severe Weather on mobile